Time;durP1;ratioP1;P1;durP2;ratioP2;P2;SDS_P1;SDS_P2;PMS_P1;PMS_P2;Temp;Humidity;BMP_temperature;BMP_pressure;BME280_temperature;BME280_humidity;BME280_pressure;Samples;Min_cycle;Max_cycle;Signal;HPM_P1;HPM_P2
2022/01/12 00:01:59;;;;;;;;;62.25;51.50;;;;;;;;4975543;28;45424;-59
2022/01/12 00:04:24;;;;;;;;;64.25;53.00;;;;;;;;4973547;28;45460;-61
2022/01/12 00:06:49;;;;;;;;;68.75;53.75;;;;;;;;4975259;28;45985;-60
2022/01/12 00:09:14;;;;;;;;;58.75;48.25;;;;;;;;4974704;28;45479;-60
2022/01/12 00:11:40;;;;;;;;;61.75;51.75;;;;;;;;4975321;28;45401;-61
2022/01/12 00:14:05;;;;;;;;;65.00;52.25;;;;;;;;4973950;28;45668;-61
2022/01/12 00:16:31;;;;;;;;;64.00;48.75;;;;;;;;4974895;28;46257;-60
2022/01/12 00:18:56;;;;;;;;;64.50;50.50;;;;;;;;4976753;28;45483;-60
2022/01/12 00:21:21;;;;;;;;;61.50;49.25;;;;;;;;4978026;28;45448;-61
2022/01/12 00:23:47;;;;;;;;;63.50;50.25;;;;;;;;4978609;28;45464;-61
2022/01/12 00:26:25;;;;;;;;;64.00;52.25;;;;;;;;4977937;28;45974;-60
2022/01/12 00:34:18;;;;;;;;;65.50;51.25;;;;;;;;4978377;28;45377;-61
2022/01/12 00:36:44;;;;;;;;;59.75;48.50;;;;;;;;4977770;28;45354;-59
2022/01/12 00:39:09;;;;;;;;;63.75;52.25;;;;;;;;4978139;28;45405;-60
2022/01/12 00:41:38;;;;;;;;;66.75;53.00;;;;;;;;4976858;28;45402;-61
2022/01/12 00:44:07;;;;;;;;;61.00;49.00;;;;;;;;4976943;28;45466;-59
2022/01/12 00:46:32;;;;;;;;;68.25;55.00;;;;;;;;4978234;28;46041;-60
2022/01/12 00:48:58;;;;;;;;;67.25;53.75;;;;;;;;4977436;28;45423;-60
2022/01/12 00:51:30;;;;;;;;;64.25;49.75;;;;;;;;4976650;28;45501;-60
2022/01/12 00:53:55;;;;;;;;;67.25;52.50;;;;;;;;4978209;28;45442;-60
2022/01/12 00:56:21;;;;;;;;;65.50;49.75;;;;;;;;4977944;28;45390;-61
2022/01/12 00:58:47;;;;;;;;;59.75;49.25;;;;;;;;4977189;28;45362;-61
2022/01/12 01:01:12;;;;;;;;;56.00;45.25;;;;;;;;4978016;28;45470;-58
2022/01/12 01:03:37;;;;;;;;;49.25;44.00;;;;;;;;4976368;28;45652;-59
2022/01/12 01:06:03;;;;;;;;;54.75;48.00;;;;;;;;4977767;28;45447;-59
2022/01/12 01:08:29;;;;;;;;;57.25;47.00;;;;;;;;4977618;28;45436;-60
2022/01/12 01:10:56;;;;;;;;;62.50;44.50;;;;;;;;4976966;28;45515;-60
2022/01/12 01:13:27;;;;;;;;;57.00;45.50;;;;;;;;4978145;28;45419;-60
2022/01/12 01:16:13;;;;;;;;;61.00;51.75;;;;;;;;4977565;28;45356;-61
2022/01/12 01:26:50;;;;;;;;;60.50;48.00;;;;;;;;4976206;28;45530;-60
2022/01/12 01:29:16;;;;;;;;;65.25;49.50;;;;;;;;4976798;28;45471;-61
2022/01/12 01:31:43;;;;;;;;;60.75;49.25;;;;;;;;4976228;28;45497;-58
2022/01/12 01:34:11;;;;;;;;;67.25;52.50;;;;;;;;4977633;28;45480;-59
2022/01/12 01:36:40;;;;;;;;;56.75;47.00;;;;;;;;4976305;28;46287;-60
2022/01/12 01:39:06;;;;;;;;;62.00;51.75;;;;;;;;4977401;28;45352;-60
2022/01/12 01:41:31;;;;;;;;;58.00;49.25;;;;;;;;4977438;28;45461;-59
2022/01/12 01:55:06;;;;;;;;;68.50;51.75;;;;;;;;4976597;28;45457;-59
2022/01/12 01:57:32;;;;;;;;;66.00;50.50;;;;;;;;4977076;28;45319;-60
2022/01/12 01:59:57;;;;;;;;;62.75;52.25;;;;;;;;4976837;28;45385;-60
2022/01/12 02:02:22;;;;;;;;;66.75;49.25;;;;;;;;4977298;28;45382;-59
2022/01/12 02:04:48;;;;;;;;;62.25;49.25;;;;;;;;4976286;28;45366;-58
2022/01/12 02:07:14;;;;;;;;;61.25;52.00;;;;;;;;4976839;28;45454;-59
2022/01/12 02:09:39;;;;;;;;;67.00;51.50;;;;;;;;4976314;28;45389;-59
2022/01/12 02:12:05;;;;;;;;;57.50;46.25;;;;;;;;4977127;28;45711;-59
2022/01/12 02:14:30;;;;;;;;;60.25;50.25;;;;;;;;4976838;28;45563;-59
2022/01/12 02:17:12;;;;;;;;;58.50;50.00;;;;;;;;4976121;28;45893;-60
2022/01/12 02:19:52;;;;;;;;;65.25;51.00;;;;;;;;4976826;28;45424;-60
2022/01/12 02:36:11;;;;;;;;;48.75;43.50;;;;;;;;4976192;28;45445;-59
2022/01/12 02:41:21;;;;;;;;;63.50;50.50;;;;;;;;4975931;28;45623;-58
2022/01/12 02:54:43;;;;;;;;;59.25;46.50;;;;;;;;4961241;28;45377;-59
2022/01/12 02:57:09;;;;;;;;;58.50;47.50;;;;;;;;4976541;28;45470;-59
2022/01/12 02:59:34;;;;;;;;;56.00;45.50;;;;;;;;4975647;28;46229;-59
2022/01/12 03:02:22;;;;;;;;;66.00;52.00;;;;;;;;4976226;28;45488;-59
2022/01/12 03:05:20;;;;;;;;;62.75;49.75;;;;;;;;4974758;28;45400;-58
2022/01/12 03:07:45;;;;;;;;;63.75;52.00;;;;;;;;4976301;28;45361;-59
2022/01/12 03:10:11;;;;;;;;;65.75;51.00;;;;;;;;4975781;28;45395;-60
2022/01/12 03:12:41;;;;;;;;;65.75;53.25;;;;;;;;4975814;28;45310;-59
2022/01/12 03:15:07;;;;;;;;;75.25;55.50;;;;;;;;4976168;28;45546;-60
2022/01/12 03:17:34;;;;;;;;;63.25;51.75;;;;;;;;4976252;28;45373;-60
2022/01/12 03:19:59;;;;;;;;;65.25;52.25;;;;;;;;4975969;28;45365;-60
2022/01/12 03:22:24;;;;;;;;;59.25;49.00;;;;;;;;4975198;28;45397;-60
2022/01/12 03:24:49;;;;;;;;;57.00;44.50;;;;;;;;4975992;28;45396;-59
2022/01/12 03:27:16;;;;;;;;;64.00;52.25;;;;;;;;4976195;28;45628;-60
2022/01/12 03:29:49;;;;;;;;;65.50;53.50;;;;;;;;4975947;28;45387;-60
2022/01/12 03:32:17;;;;;;;;;57.75;49.25;;;;;;;;4975846;28;45325;-59
2022/01/12 03:34:52;;;;;;;;;67.75;52.50;;;;;;;;4975900;28;45523;-59
2022/01/12 03:37:42;;;;;;;;;58.00;48.25;;;;;;;;4974782;28;45384;-59
2022/01/12 03:40:04;;;;;;;;;61.75;52.00;;;;;;;;4975457;28;45367;-60
2022/01/12 03:42:29;;;;;;;;;62.25;51.50;;;;;;;;4975771;28;45420;-60
2022/01/12 03:44:55;;;;;;;;;71.50;54.75;;;;;;;;4975254;28;45462;-60
2022/01/12 03:47:20;;;;;;;;;56.00;47.00;;;;;;;;4975771;28;45401;-60
2022/01/12 03:49:46;;;;;;;;;63.50;53.75;;;;;;;;4975372;28;45510;-59
2022/01/12 03:52:11;;;;;;;;;61.75;48.25;;;;;;;;4974470;28;45488;-59
2022/01/12 03:54:37;;;;;;;;;61.00;50.00;;;;;;;;4977275;28;45458;-59
2022/01/12 03:57:02;;;;;;;;;67.00;54.75;;;;;;;;4979283;28;45585;-59
2022/01/12 03:59:27;;;;;;;;;60.50;49.25;;;;;;;;4978826;28;46046;-60
2022/01/12 04:01:52;;;;;;;;;64.00;51.50;;;;;;;;4978762;28;45454;-59
2022/01/12 04:04:23;;;;;;;;;66.50;50.25;;;;;;;;4977324;28;45515;-59
2022/01/12 04:09:32;;;;;;;;;64.25;52.75;;;;;;;;4978665;28;45475;-58
2022/01/12 04:11:57;;;;;;;;;70.75;55.75;;;;;;;;4978597;28;45460;-59
2022/01/12 04:14:22;;;;;;;;;62.50;50.50;;;;;;;;4978850;28;45482;-59
2022/01/12 04:16:48;;;;;;;;;67.50;48.75;;;;;;;;4978484;28;45313;-59
2022/01/12 04:19:13;;;;;;;;;59.25;47.00;;;;;;;;4978781;28;45525;-60
2022/01/12 04:21:47;;;;;;;;;64.50;51.50;;;;;;;;4978628;28;45366;-60
2022/01/12 04:24:13;;;;;;;;;64.25;49.25;;;;;;;;4977084;28;45541;-59
2022/01/12 04:26:38;;;;;;;;;65.25;52.00;;;;;;;;4978688;28;45378;-58
2022/01/12 04:29:04;;;;;;;;;68.00;52.50;;;;;;;;4977766;28;45475;-60
2022/01/12 04:31:29;;;;;;;;;67.50;54.50;;;;;;;;4976643;28;45488;-60
2022/01/12 04:33:54;;;;;;;;;68.25;52.75;;;;;;;;4977912;28;45450;-58
2022/01/12 04:36:19;;;;;;;;;68.25;54.50;;;;;;;;4978614;28;45549;-59
2022/01/12 04:38:45;;;;;;;;;67.00;51.75;;;;;;;;4978015;28;46299;-60
2022/01/12 04:41:11;;;;;;;;;79.25;57.25;;;;;;;;4978667;28;45571;-59
2022/01/12 04:43:37;;;;;;;;;67.50;51.50;;;;;;;;4976959;28;45546;-59
2022/01/12 04:48:37;;;;;;;;;64.50;52.75;;;;;;;;4978248;28;45492;-60
2022/01/12 04:51:02;;;;;;;;;65.75;52.00;;;;;;;;4976823;28;45456;-59
2022/01/12 04:53:27;;;;;;;;;64.00;52.25;;;;;;;;4976927;28;45488;-59
2022/01/12 04:55:53;;;;;;;;;68.75;52.50;;;;;;;;4978039;28;45337;-59
2022/01/12 04:58:18;;;;;;;;;61.50;50.50;;;;;;;;4978231;28;45433;-60
2022/01/12 05:00:45;;;;;;;;;66.50;53.50;;;;;;;;4977672;28;45440;-59
2022/01/12 05:08:52;;;;;;;;;60.25;48.50;;;;;;;;4977874;28;45448;-60
2022/01/12 05:14:23;;;;;;;;;56.00;47.25;;;;;;;;4936623;28;45471;-60
2022/01/12 05:16:48;;;;;;;;;67.00;50.75;;;;;;;;4936896;28;45660;-60
2022/01/12 05:19:14;;;;;;;;;63.00;51.00;;;;;;;;4955783;28;45992;-60
2022/01/12 05:21:39;;;;;;;;;67.25;53.00;;;;;;;;4977581;28;45537;-59
2022/01/12 05:24:06;;;;;;;;;61.25;49.75;;;;;;;;4977338;28;45384;-60
2022/01/12 05:26:32;;;;;;;;;62.50;52.75;;;;;;;;4977837;28;45603;-61
2022/01/12 05:28:57;;;;;;;;;62.75;50.00;;;;;;;;4975919;28;46702;-59
2022/01/12 05:31:23;;;;;;;;;58.75;48.00;;;;;;;;4977394;28;45510;-60
2022/01/12 05:33:49;;;;;;;;;63.50;53.00;;;;;;;;4976840;28;45451;-60
2022/01/12 05:36:16;;;;;;;;;59.75;50.75;;;;;;;;4977593;28;45353;-60
2022/01/12 05:38:42;;;;;;;;;66.00;52.25;;;;;;;;4976287;28;46397;-58
2022/01/12 05:41:07;;;;;;;;;60.75;49.25;;;;;;;;4975762;28;45439;-59
2022/01/12 05:43:33;;;;;;;;;66.75;53.25;;;;;;;;4977451;28;45400;-59
2022/01/12 05:46:08;;;;;;;;;68.00;51.25;;;;;;;;4976810;28;45615;-59
2022/01/12 05:51:17;;;;;;;;;66.50;52.75;;;;;;;;4977225;28;45422;-59
2022/01/12 05:53:42;;;;;;;;;65.25;52.00;;;;;;;;4977305;28;45403;-60
2022/01/12 05:56:08;;;;;;;;;61.00;47.25;;;;;;;;4976976;28;45353;-58
2022/01/12 05:58:33;;;;;;;;;62.00;48.00;;;;;;;;4976916;28;45575;-60
2022/01/12 06:00:58;;;;;;;;;62.25;51.25;;;;;;;;4977218;28;45367;-59
2022/01/12 06:03:23;;;;;;;;;66.50;50.75;;;;;;;;4977047;28;45404;-60
2022/01/12 06:05:48;;;;;;;;;47.00;41.00;;;;;;;;4977318;28;45641;-59
2022/01/12 06:08:14;;;;;;;;;64.75;47.50;;;;;;;;4976724;28;45419;-59
2022/01/12 06:10:39;;;;;;;;;61.25;52.00;;;;;;;;4975738;28;45469;-61
2022/01/12 06:13:04;;;;;;;;;61.25;47.00;;;;;;;;4976701;28;45694;-60
2022/01/12 06:15:29;;;;;;;;;54.75;44.75;;;;;;;;4976566;28;45380;-61
2022/01/12 06:17:54;;;;;;;;;63.00;48.75;;;;;;;;4975550;28;45521;-60
2022/01/12 06:20:21;;;;;;;;;59.75;45.25;;;;;;;;4976975;28;45443;-61
2022/01/12 06:22:46;;;;;;;;;61.75;49.25;;;;;;;;4975295;28;45405;-58
2022/01/12 06:25:14;;;;;;;;;61.75;50.25;;;;;;;;4977382;28;45482;-60
2022/01/12 06:27:49;;;;;;;;;61.00;49.00;;;;;;;;4974781;28;46516;-59
2022/01/12 06:31:10;;;;;;;;;57.50;45.00;;;;;;;;4976031;28;45382;-59
2022/01/12 06:32:59;;;;;;;;;62.00;47.75;;;;;;;;4976877;28;45426;-59
2022/01/12 06:35:28;;;;;;;;;57.75;47.50;;;;;;;;4976662;28;45578;-60
2022/01/12 06:37:54;;;;;;;;;66.50;49.00;;;;;;;;4976245;28;45405;-61
2022/01/12 06:40:19;;;;;;;;;49.25;42.25;;;;;;;;4975694;28;45727;-60
2022/01/12 06:42:45;;;;;;;;;57.75;44.75;;;;;;;;4976081;28;45400;-60
2022/01/12 06:45:10;;;;;;;;;58.25;48.50;;;;;;;;4976135;28;45666;-60
2022/01/12 06:47:36;;;;;;;;;37.75;31.25;;;;;;;;4976167;28;45597;-59
2022/01/12 06:50:02;;;;;;;;;57.00;45.75;;;;;;;;4976272;28;45512;-60
2022/01/12 06:52:27;;;;;;;;;56.75;47.50;;;;;;;;4975072;28;45454;-59
2022/01/12 06:54:54;;;;;;;;;56.75;47.25;;;;;;;;4976459;28;45489;-60
2022/01/12 06:57:20;;;;;;;;;51.75;44.25;;;;;;;;4974573;28;47657;-59
2022/01/12 06:59:45;;;;;;;;;51.75;43.75;;;;;;;;4976187;28;45496;-62
2022/01/12 07:02:10;;;;;;;;;56.25;45.25;;;;;;;;4975432;28;45329;-61
2022/01/12 07:04:35;;;;;;;;;50.75;44.00;;;;;;;;4975969;28;45310;-60
2022/01/12 07:07:01;;;;;;;;;60.00;43.50;;;;;;;;4976038;28;45606;-60
2022/01/12 07:09:26;;;;;;;;;58.75;48.75;;;;;;;;4976247;28;45831;-60
2022/01/12 07:11:51;;;;;;;;;56.25;45.25;;;;;;;;4976543;28;45462;-60
2022/01/12 07:14:16;;;;;;;;;56.25;49.25;;;;;;;;4975607;28;45441;-60
2022/01/12 07:16:42;;;;;;;;;68.75;49.25;;;;;;;;4975984;28;45348;-59
2022/01/12 07:19:07;;;;;;;;;48.25;43.25;;;;;;;;4975951;28;45460;-63
2022/01/12 07:21:32;;;;;;;;;61.75;49.25;;;;;;;;4975728;28;45452;-61
2022/01/12 07:23:57;;;;;;;;;65.75;52.25;;;;;;;;4975427;28;45420;-60
2022/01/12 07:26:23;;;;;;;;;56.00;48.00;;;;;;;;4975797;28;46121;-64
2022/01/12 07:28:49;;;;;;;;;56.75;47.00;;;;;;;;4978334;28;45353;-63
2022/01/12 07:31:14;;;;;;;;;64.25;51.50;;;;;;;;4979041;28;45352;-63
2022/01/12 07:33:39;;;;;;;;;65.00;51.75;;;;;;;;4979160;28;45679;-63
2022/01/12 07:36:04;;;;;;;;;61.25;45.25;;;;;;;;4978291;28;46232;-63
2022/01/12 07:38:29;;;;;;;;;62.25;48.00;;;;;;;;4979351;28;45390;-63
2022/01/12 07:40:55;;;;;;;;;61.75;49.75;;;;;;;;4979377;28;45547;-63
2022/01/12 07:43:20;;;;;;;;;60.00;47.50;;;;;;;;4979201;28;45515;-63
2022/01/12 07:45:45;;;;;;;;;63.50;47.25;;;;;;;;4978112;28;45513;-64
2022/01/12 07:48:12;;;;;;;;;64.75;48.75;;;;;;;;4978809;28;45448;-63
2022/01/12 07:50:38;;;;;;;;;52.75;47.25;;;;;;;;4979109;28;45461;-63
2022/01/12 07:53:03;;;;;;;;;65.50;46.50;;;;;;;;4978981;28;45594;-64
2022/01/12 07:55:28;;;;;;;;;65.50;51.25;;;;;;;;4978662;28;45452;-63
2022/01/12 07:57:53;;;;;;;;;57.00;46.25;;;;;;;;4977460;28;45518;-63
2022/01/12 08:00:20;;;;;;;;;62.25;49.50;;;;;;;;4978698;28;45655;-64
2022/01/12 08:02:45;;;;;;;;;61.00;49.00;;;;;;;;4978248;28;45393;-63
2022/01/12 08:05:10;;;;;;;;;61.25;48.25;;;;;;;;4978762;28;45416;-64
2022/01/12 08:07:38;;;;;;;;;62.75;52.25;;;;;;;;4978130;28;45471;-64
2022/01/12 08:10:04;;;;;;;;;65.25;52.25;;;;;;;;4977325;28;45397;-64
2022/01/12 08:12:29;;;;;;;;;64.00;49.25;;;;;;;;4978838;28;45650;-64
2022/01/12 08:14:54;;;;;;;;;62.50;46.50;;;;;;;;4978627;28;45384;-64
2022/01/12 08:17:20;;;;;;;;;55.50;46.25;;;;;;;;4978563;28;45611;-63
2022/01/12 08:19:45;;;;;;;;;61.75;48.75;;;;;;;;4978061;28;45594;-63
2022/01/12 08:22:10;;;;;;;;;68.00;52.00;;;;;;;;4978399;28;45640;-63
2022/01/12 08:24:35;;;;;;;;;66.00;54.00;;;;;;;;4978451;28;46103;-63
2022/01/12 08:27:01;;;;;;;;;60.25;50.75;;;;;;;;4978520;28;45480;-63
2022/01/12 08:29:28;;;;;;;;;70.00;53.00;;;;;;;;4977913;28;45436;-64
2022/01/12 08:31:55;;;;;;;;;66.75;51.75;;;;;;;;4978520;28;45579;-63
2022/01/12 08:34:20;;;;;;;;;68.50;54.50;;;;;;;;4976958;28;47262;-63
2022/01/12 08:36:45;;;;;;;;;65.25;53.75;;;;;;;;4978406;28;45338;-63
2022/01/12 08:39:10;;;;;;;;;67.75;53.00;;;;;;;;4977658;28;45382;-64
2022/01/12 08:41:36;;;;;;;;;61.00;46.00;;;;;;;;4977583;28;45359;-63
2022/01/12 08:44:02;;;;;;;;;65.00;52.00;;;;;;;;4977982;28;46094;-64
2022/01/12 08:46:27;;;;;;;;;64.50;54.50;;;;;;;;4978130;28;45530;-63
2022/01/12 08:48:52;;;;;;;;;62.50;46.00;;;;;;;;4978186;28;45434;-64
2022/01/12 08:51:18;;;;;;;;;64.25;51.75;;;;;;;;4977630;28;45433;-63
2022/01/12 08:53:43;;;;;;;;;63.00;49.50;;;;;;;;4977597;28;46196;-63
2022/01/12 08:56:08;;;;;;;;;57.00;49.50;;;;;;;;4978097;28;45415;-64
2022/01/12 08:58:33;;;;;;;;;65.75;54.50;;;;;;;;4976851;28;45385;-64
2022/01/12 09:01:03;;;;;;;;;58.50;47.50;;;;;;;;4978034;28;45605;-63
2022/01/12 09:03:28;;;;;;;;;68.00;52.25;;;;;;;;4977092;28;45516;-64
2022/01/12 09:05:53;;;;;;;;;71.00;54.00;;;;;;;;4977821;28;45353;-63
2022/01/12 09:08:19;;;;;;;;;70.00;54.75;;;;;;;;4977845;28;45576;-63
2022/01/12 09:10:44;;;;;;;;;72.00;56.00;;;;;;;;4977826;28;45432;-64
2022/01/12 09:13:09;;;;;;;;;73.00;55.75;;;;;;;;4977655;28;46031;-64
2022/01/12 09:15:34;;;;;;;;;75.00;58.75;;;;;;;;4977438;28;45459;-63
2022/01/12 09:17:59;;;;;;;;;83.75;63.25;;;;;;;;4977756;28;45475;-63
2022/01/12 09:20:25;;;;;;;;;72.00;56.25;;;;;;;;4977663;28;45572;-63
2022/01/12 09:22:50;;;;;;;;;71.00;58.00;;;;;;;;4977403;28;46094;-64
2022/01/12 09:25:16;;;;;;;;;76.25;58.50;;;;;;;;4976985;28;45514;-63
2022/01/12 09:27:42;;;;;;;;;75.00;57.50;;;;;;;;4977747;28;45345;-64
2022/01/12 09:30:09;;;;;;;;;73.50;59.00;;;;;;;;4977343;28;45614;-64
2022/01/12 09:32:35;;;;;;;;;68.75;54.00;;;;;;;;4977363;28;46477;-63
2022/01/12 09:35:00;;;;;;;;;81.00;61.00;;;;;;;;4977439;28;45409;-64
2022/01/12 09:37:25;;;;;;;;;77.25;60.00;;;;;;;;4976965;28;45405;-63
2022/01/12 09:39:50;;;;;;;;;79.50;59.75;;;;;;;;4975975;28;45472;-63
2022/01/12 09:42:16;;;;;;;;;75.00;56.75;;;;;;;;4977327;28;45365;-63
2022/01/12 09:44:47;;;;;;;;;77.00;61.50;;;;;;;;4977213;28;45418;-63
2022/01/12 09:47:14;;;;;;;;;80.25;61.50;;;;;;;;4976711;28;45460;-64
2022/01/12 09:49:41;;;;;;;;;81.75;64.50;;;;;;;;4977316;28;45382;-64
2022/01/12 09:52:06;;;;;;;;;74.00;58.00;;;;;;;;4976105;28;45524;-64
2022/01/12 09:54:31;;;;;;;;;77.75;60.75;;;;;;;;4977189;28;45374;-64
2022/01/12 09:56:59;;;;;;;;;77.25;62.75;;;;;;;;4977441;28;45660;-64
2022/01/12 09:59:25;;;;;;;;;78.25;62.25;;;;;;;;4976904;28;45456;-63
2022/01/12 10:01:52;;;;;;;;;77.50;62.25;;;;;;;;4977261;28;45442;-64
2022/01/12 10:04:22;;;;;;;;;80.75;61.00;;;;;;;;4976981;28;45358;-63
2022/01/12 10:06:50;;;;;;;;;80.50;60.25;;;;;;;;4977312;28;45428;-63
2022/01/12 10:09:16;;;;;;;;;71.50;56.50;;;;;;;;4974803;28;45513;-63
2022/01/12 10:11:55;;;;;;;;;76.25;60.50;;;;;;;;5110242;27;45403;-65
2022/01/12 10:14:20;;;;;;;;;80.00;59.75;;;;;;;;5113438;27;45365;-64
2022/01/12 10:16:49;;;;;;;;;80.25;57.75;;;;;;;;5113776;27;45348;-64
2022/01/12 10:19:24;;;;;;;;;78.25;61.25;;;;;;;;5113476;27;45477;-65
2022/01/12 10:21:49;;;;;;;;;75.75;60.00;;;;;;;;5111713;27;46711;-65
2022/01/12 10:24:18;;;;;;;;;76.50;57.50;;;;;;;;5113551;27;45503;-65
2022/01/12 10:26:44;;;;;;;;;78.25;60.50;;;;;;;;5113612;27;45377;-64
2022/01/12 10:29:12;;;;;;;;;75.25;59.00;;;;;;;;5113593;27;45557;-64
2022/01/12 10:31:44;;;;;;;;;76.50;60.25;;;;;;;;5112812;27;45522;-64
2022/01/12 10:34:09;;;;;;;;;72.75;57.75;;;;;;;;5113501;27;45511;-64
2022/01/12 10:36:36;;;;;;;;;81.00;61.25;;;;;;;;5113546;27;45403;-65
2022/01/12 10:39:04;;;;;;;;;72.25;56.25;;;;;;;;5113333;27;45536;-64
2022/01/12 10:41:30;;;;;;;;;75.00;57.75;;;;;;;;5112067;27;45458;-64
2022/01/12 10:43:55;;;;;;;;;70.50;55.75;;;;;;;;5112921;27;45572;-64
2022/01/12 10:46:20;;;;;;;;;69.50;53.00;;;;;;;;5113248;27;45510;-65
2022/01/12 10:48:47;;;;;;;;;80.25;63.25;;;;;;;;5113320;27;45550;-64
2022/01/12 10:51:16;;;;;;;;;73.50;60.25;;;;;;;;5112968;27;45957;-64
2022/01/12 10:53:42;;;;;;;;;77.75;62.00;;;;;;;;5110683;27;45620;-64
2022/01/12 10:56:11;;;;;;;;;76.50;59.75;;;;;;;;5113077;27;45572;-65
2022/01/12 10:58:40;;;;;;;;;69.50;55.50;;;;;;;;5111107;27;45497;-65
2022/01/12 11:01:05;;;;;;;;;78.75;62.00;;;;;;;;5112901;27;45918;-65
2022/01/12 11:03:31;;;;;;;;;75.50;58.25;;;;;;;;5111927;27;45415;-64
2022/01/12 11:05:57;;;;;;;;;75.00;59.50;;;;;;;;5112886;27;45315;-64
2022/01/12 11:08:26;;;;;;;;;80.00;63.25;;;;;;;;5111064;27;45493;-64
2022/01/12 11:10:56;;;;;;;;;75.75;60.00;;;;;;;;5109094;27;45449;-64
2022/01/12 11:13:22;;;;;;;;;70.75;58.75;;;;;;;;5104988;27;45535;-65
2022/01/12 11:15:48;;;;;;;;;74.00;58.00;;;;;;;;5091007;27;45582;-64
2022/01/12 11:18:14;;;;;;;;;82.50;61.50;;;;;;;;5092031;27;45477;-64
2022/01/12 11:20:41;;;;;;;;;80.50;60.00;;;;;;;;5091893;27;46457;-64
2022/01/12 11:23:07;;;;;;;;;82.75;63.75;;;;;;;;5078982;27;45441;-64
2022/01/12 11:25:43;;;;;;;;;84.50;63.00;;;;;;;;5077746;27;45397;-64
2022/01/12 11:28:20;;;;;;;;;80.50;62.50;;;;;;;;5078350;27;45421;-64
2022/01/12 11:30:45;;;;;;;;;66.50;53.00;;;;;;;;5077693;27;46096;-65
2022/01/12 11:33:12;;;;;;;;;77.75;63.25;;;;;;;;5078093;28;45365;-64
2022/01/12 11:35:47;;;;;;;;;77.00;59.00;;;;;;;;5077487;27;45437;-65
2022/01/12 11:38:26;;;;;;;;;81.25;61.00;;;;;;;;5077710;28;45424;-64
2022/01/12 11:40:54;;;;;;;;;80.25;61.75;;;;;;;;5078070;27;45621;-64
2022/01/12 11:43:27;;;;;;;;;80.25;62.75;;;;;;;;5078049;27;45495;-64
2022/01/12 11:46:00;;;;;;;;;73.25;59.25;;;;;;;;5078098;27;45394;-64
2022/01/12 11:48:33;;;;;;;;;81.00;61.00;;;;;;;;5077557;27;45614;-65
2022/01/12 11:50:58;;;;;;;;;71.50;57.25;;;;;;;;5077905;27;45910;-64
2022/01/12 11:53:23;;;;;;;;;74.50;57.50;;;;;;;;5077957;27;45475;-65
2022/01/12 11:55:48;;;;;;;;;74.25;58.00;;;;;;;;5076706;28;45534;-65
2022/01/12 11:58:18;;;;;;;;;78.25;61.50;;;;;;;;5077926;28;45374;-64
2022/01/12 12:00:43;;;;;;;;;78.50;61.25;;;;;;;;5077663;27;45926;-65
2022/01/12 12:03:17;;;;;;;;;81.25;60.75;;;;;;;;5078726;27;45487;-64
2022/01/12 12:05:43;;;;;;;;;79.25;62.00;;;;;;;;5088972;27;45452;-65
2022/01/12 12:08:09;;;;;;;;;82.75;62.50;;;;;;;;5078303;27;45414;-66
2022/01/12 12:10:35;;;;;;;;;78.00;62.25;;;;;;;;5076664;28;46265;-64
2022/01/12 12:13:02;;;;;;;;;82.25;62.75;;;;;;;;5088725;27;45331;-66
2022/01/12 12:15:28;;;;;;;;;74.75;60.50;;;;;;;;5096982;27;45564;-64
2022/01/12 12:17:54;;;;;;;;;67.75;55.75;;;;;;;;5090537;27;45500;-64
2022/01/12 12:20:21;;;;;;;;;78.00;60.50;;;;;;;;5079119;27;45510;-64
2022/01/12 12:22:48;;;;;;;;;74.00;58.50;;;;;;;;5077658;27;45422;-64
2022/01/12 12:25:21;;;;;;;;;84.00;64.25;;;;;;;;5078515;27;45398;-64
2022/01/12 12:27:53;;;;;;;;;75.25;59.25;;;;;;;;5093691;27;45487;-63
2022/01/12 12:30:20;;;;;;;;;78.25;60.50;;;;;;;;5080984;27;46216;-64
2022/01/12 12:32:46;;;;;;;;;77.75;59.75;;;;;;;;5091311;27;45568;-63
2022/01/12 12:35:16;;;;;;;;;64.00;52.25;;;;;;;;5075731;27;45379;-63
2022/01/12 12:37:49;;;;;;;;;74.25;58.75;;;;;;;;5076662;27;45368;-64
2022/01/12 12:40:16;;;;;;;;;68.50;55.75;;;;;;;;5076520;27;45469;-64
2022/01/12 12:42:42;;;;;;;;;78.00;60.25;;;;;;;;5075821;27;45434;-63
2022/01/12 12:45:08;;;;;;;;;83.25;61.50;;;;;;;;5076476;27;45468;-64
2022/01/12 12:47:33;;;;;;;;;77.75;60.50;;;;;;;;5076572;27;45492;-64
2022/01/12 12:50:01;;;;;;;;;69.50;58.25;;;;;;;;5076250;27;45452;-64
2022/01/12 12:52:31;;;;;;;;;72.25;57.00;;;;;;;;5076196;27;45630;-63
2022/01/12 12:54:57;;;;;;;;;67.50;54.25;;;;;;;;5076156;27;45461;-63
2022/01/12 12:57:23;;;;;;;;;80.00;61.00;;;;;;;;5076029;27;45437;-64
2022/01/12 12:59:49;;;;;;;;;79.75;61.50;;;;;;;;5076196;27;46652;-64
2022/01/12 13:02:15;;;;;;;;;73.25;57.50;;;;;;;;5075989;27;45493;-63
2022/01/12 13:04:40;;;;;;;;;72.75;57.00;;;;;;;;5075731;27;45370;-63
2022/01/12 13:07:13;;;;;;;;;71.50;53.50;;;;;;;;5076297;27;45494;-65
2022/01/12 13:09:38;;;;;;;;;64.25;54.25;;;;;;;;5075962;27;46253;-65
2022/01/12 13:12:03;;;;;;;;;69.75;57.00;;;;;;;;5074648;28;45671;-64
2022/01/12 13:14:29;;;;;;;;;65.75;52.00;;;;;;;;5076223;27;45443;-65
2022/01/12 13:16:55;;;;;;;;;64.25;53.00;;;;;;;;5075248;27;45601;-64
2022/01/12 13:22:38;;;;;;;;;62.00;49.75;;;;;;;;5074828;27;45558;-63
2022/01/12 13:25:11;;;;;;;;;67.75;53.75;;;;;;;;5076061;28;45442;-64
2022/01/12 13:27:37;;;;;;;;;65.50;53.25;;;;;;;;5073715;28;45445;-64
2022/01/12 13:30:03;;;;;;;;;65.00;53.50;;;;;;;;5074071;28;45525;-63
2022/01/12 13:32:29;;;;;;;;;70.75;57.50;;;;;;;;5075695;27;45374;-63
2022/01/12 13:35:03;;;;;;;;;69.00;55.25;;;;;;;;5076542;27;45401;-64
2022/01/12 13:37:28;;;;;;;;;68.25;54.25;;;;;;;;5075674;27;45381;-64
2022/01/12 13:40:07;;;;;;;;;70.75;56.00;;;;;;;;5075989;27;46107;-64
2022/01/12 13:42:32;;;;;;;;;72.00;56.50;;;;;;;;5074471;28;45510;-64
2022/01/12 13:45:05;;;;;;;;;61.25;50.00;;;;;;;;5075919;27;45385;-65
2022/01/12 13:47:34;;;;;;;;;59.75;49.50;;;;;;;;5076417;27;45489;-64
2022/01/12 13:50:09;;;;;;;;;65.25;54.25;;;;;;;;5075314;28;46165;-64
2022/01/12 13:52:35;;;;;;;;;61.75;48.50;;;;;;;;5076162;27;45490;-65
2022/01/12 13:55:09;;;;;;;;;58.00;46.25;;;;;;;;5076266;28;45430;-64
2022/01/12 13:57:34;;;;;;;;;58.25;50.00;;;;;;;;5076166;27;45541;-64
2022/01/12 13:59:59;;;;;;;;;60.75;50.75;;;;;;;;5075601;28;46185;-64
2022/01/12 14:02:26;;;;;;;;;40.25;35.50;;;;;;;;5074636;28;45498;-64
2022/01/12 14:05:04;;;;;;;;;55.75;46.75;;;;;;;;5076239;27;45535;-64
2022/01/12 14:07:32;;;;;;;;;60.25;47.75;;;;;;;;5075981;27;45409;-64
2022/01/12 14:09:58;;;;;;;;;60.00;46.25;;;;;;;;5075572;27;45439;-64
2022/01/12 14:12:27;;;;;;;;;57.25;48.25;;;;;;;;5075070;27;45449;-63
2022/01/12 14:14:59;;;;;;;;;64.00;51.50;;;;;;;;5075842;27;45386;-64
2022/01/12 14:17:24;;;;;;;;;56.25;45.75;;;;;;;;5074390;28;45441;-64
2022/01/12 14:19:53;;;;;;;;;58.75;44.75;;;;;;;;5075439;27;45533;-63
2022/01/12 14:22:18;;;;;;;;;64.00;50.50;;;;;;;;5074916;27;45433;-65
2022/01/12 14:24:52;;;;;;;;;65.75;52.00;;;;;;;;5075605;27;45513;-64
2022/01/12 14:27:17;;;;;;;;;57.00;48.50;;;;;;;;5075825;28;45493;-64
2022/01/12 14:29:43;;;;;;;;;62.75;51.75;;;;;;;;5075357;27;46608;-66
2022/01/12 14:32:08;;;;;;;;;62.75;49.25;;;;;;;;5075197;27;45346;-64
2022/01/12 14:34:33;;;;;;;;;55.75;46.00;;;;;;;;5075224;27;45388;-64
2022/01/12 14:36:58;;;;;;;;;57.75;48.75;;;;;;;;5075525;27;45550;-64
2022/01/12 14:39:24;;;;;;;;;51.75;45.00;;;;;;;;5075196;27;46394;-63
2022/01/12 14:41:51;;;;;;;;;63.50;51.00;;;;;;;;5075501;27;45358;-63
2022/01/12 14:44:16;;;;;;;;;63.50;52.25;;;;;;;;5075063;27;45312;-63
2022/01/12 14:46:41;;;;;;;;;57.50;47.75;;;;;;;;5075318;27;45515;-63
2022/01/12 14:49:07;;;;;;;;;64.50;50.50;;;;;;;;5075349;28;45959;-65
2022/01/12 14:51:32;;;;;;;;;58.50;47.25;;;;;;;;5075249;27;45344;-64
2022/01/12 14:53:57;;;;;;;;;62.75;50.25;;;;;;;;5075469;27;45645;-63
2022/01/12 14:56:22;;;;;;;;;57.25;46.75;;;;;;;;5073154;27;45409;-63
2022/01/12 14:58:47;;;;;;;;;59.75;50.25;;;;;;;;5076982;28;46602;-63
2022/01/12 15:01:13;;;;;;;;;57.25;48.50;;;;;;;;5078648;27;45461;-63
2022/01/12 15:03:38;;;;;;;;;58.50;49.25;;;;;;;;5078816;27;45384;-63
2022/01/12 15:06:04;;;;;;;;;64.75;51.50;;;;;;;;5078507;27;45638;-64
2022/01/12 15:08:30;;;;;;;;;55.75;47.75;;;;;;;;5078532;27;45539;-64
2022/01/12 15:10:55;;;;;;;;;62.75;50.25;;;;;;;;5078279;27;45409;-65
2022/01/12 15:13:38;;;;;;;;;60.75;48.50;;;;;;;;5078842;27;45430;-62
2022/01/12 15:16:03;;;;;;;;;64.75;52.75;;;;;;;;5078769;27;45443;-63
2022/01/12 15:18:29;;;;;;;;;62.25;50.50;;;;;;;;5077708;27;45479;-63
2022/01/12 15:20:55;;;;;;;;;61.25;50.75;;;;;;;;5078351;27;45457;-64
2022/01/12 15:23:20;;;;;;;;;62.50;50.25;;;;;;;;5078439;27;45460;-64
2022/01/12 15:25:46;;;;;;;;;62.50;50.75;;;;;;;;5078068;28;45635;-63
2022/01/12 15:28:11;;;;;;;;;61.25;49.50;;;;;;;;5076752;27;45467;-63